ADDS METAR Data INFO
IDs: Format: Raw Decoded Include TAF

Data at: 1950 UTC 15 Dec 2017

METAR for:KOBE (Okeechobee Cnty Arpt, FL, US)
Text:KOBE 151935Z AUTO 22008KT 10SM CLR 25/12 A3005 RMK AO2
Temperature: 25.0°C ( 77°F)
Dewpoint: 12.0°C ( 54°F) [RH = 44%]
Pressure (altimeter):30.05 inches Hg (1017.7 mb)
Winds:from the SW (220 degrees) at 9 MPH (8 knots; 4.1 m/s)
Visibility:10 or more sm (16+ km)
Ceiling:at least 12,000 feet AGL
Clouds:sky clear below 12,000 feet AGL
QC Flag:automated observation with no human augmentation